sensor_id;sensor_type;location;lat;lon;timestamp;P1;durP1;ratioP1;P2;durP2;ratioP2
75148;SDS011;63724;47.470;19.166;2023-02-04T00:00:32;4.73;;;0.87;;
75148;SDS011;63724;47.470;19.166;2023-02-04T00:03:38;7.03;;;1.13;;
75148;SDS011;63724;47.470;19.166;2023-02-04T00:06:41;6.32;;;0.80;;
75148;SDS011;63724;47.470;19.166;2023-02-04T00:09:43;7.95;;;1.02;;
75148;SDS011;63724;47.470;19.166;2023-02-04T00:12:50;3.88;;;0.80;;
75148;SDS011;63724;47.470;19.166;2023-02-04T00:15:53;4.17;;;0.73;;
75148;SDS011;63724;47.470;19.166;2023-02-04T00:18:55;5.97;;;1.00;;
75148;SDS011;63724;47.470;19.166;2023-02-04T00:21:57;6.32;;;0.93;;
75148;SDS011;63724;47.470;19.166;2023-02-04T00:25:00;4.75;;;1.00;;
75148;SDS011;63724;47.470;19.166;2023-02-04T00:28:02;7.15;;;0.88;;
75148;SDS011;63724;47.470;19.166;2023-02-04T00:31:05;2.13;;;1.00;;
75148;SDS011;63724;47.470;19.166;2023-02-04T00:34:07;4.93;;;1.00;;
75148;SDS011;63724;47.470;19.166;2023-02-04T00:37:10;5.25;;;1.50;;
75148;SDS011;63724;47.470;19.166;2023-02-04T00:40:13;8.80;;;1.52;;
75148;SDS011;63724;47.470;19.166;2023-02-04T00:43:15;5.82;;;1.10;;
75148;SDS011;63724;47.470;19.166;2023-02-04T00:46:17;4.73;;;1.20;;
75148;SDS011;63724;47.470;19.166;2023-02-04T00:49:20;4.83;;;1.03;;
75148;SDS011;63724;47.470;19.166;2023-02-04T00:52:22;3.83;;;0.80;;
75148;SDS011;63724;47.470;19.166;2023-02-04T00:55:24;5.15;;;1.55;;
75148;SDS011;63724;47.470;19.166;2023-02-04T00:58:27;4.60;;;1.17;;
75148;SDS011;63724;47.470;19.166;2023-02-04T01:01:29;3.47;;;1.23;;
75148;SDS011;63724;47.470;19.166;2023-02-04T01:04:31;8.47;;;1.07;;
75148;SDS011;63724;47.470;19.166;2023-02-04T01:07:34;5.28;;;0.95;;
75148;SDS011;63724;47.470;19.166;2023-02-04T01:10:37;4.18;;;1.10;;
75148;SDS011;63724;47.470;19.166;2023-02-04T01:13:40;6.90;;;1.13;;
75148;SDS011;63724;47.470;19.166;2023-02-04T01:16:43;10.07;;;1.30;;
75148;SDS011;63724;47.470;19.166;2023-02-04T01:19:46;5.60;;;1.10;;
75148;SDS011;63724;47.470;19.166;2023-02-04T01:22:49;5.85;;;1.13;;
75148;SDS011;63724;47.470;19.166;2023-02-04T01:25:51;7.32;;;1.20;;
75148;SDS011;63724;47.470;19.166;2023-02-04T01:28:53;8.40;;;1.08;;
75148;SDS011;63724;47.470;19.166;2023-02-04T01:31:58;5.23;;;1.23;;
75148;SDS011;63724;47.470;19.166;2023-02-04T01:35:00;2.10;;;0.83;;
75148;SDS011;63724;47.470;19.166;2023-02-04T01:38:03;5.93;;;1.05;;
75148;SDS011;63724;47.470;19.166;2023-02-04T01:41:05;5.78;;;0.95;;
75148;SDS011;63724;47.470;19.166;2023-02-04T01:44:09;4.63;;;1.00;;
75148;SDS011;63724;47.470;19.166;2023-02-04T01:47:11;4.33;;;1.10;;
75148;SDS011;63724;47.470;19.166;2023-02-04T01:50:14;7.13;;;0.93;;
75148;SDS011;63724;47.470;19.166;2023-02-04T01:53:19;9.27;;;1.20;;
75148;SDS011;63724;47.470;19.166;2023-02-04T01:56:25;4.72;;;0.77;;
75148;SDS011;63724;47.470;19.166;2023-02-04T01:59:29;3.75;;;0.75;;
75148;SDS011;63724;47.470;19.166;2023-02-04T02:05:44;4.90;;;1.00;;
75148;SDS011;63724;47.470;19.166;2023-02-04T02:08:49;6.30;;;0.95;;
75148;SDS011;63724;47.470;19.166;2023-02-04T02:11:51;5.47;;;0.80;;
75148;SDS011;63724;47.470;19.166;2023-02-04T02:14:54;3.25;;;0.85;;
75148;SDS011;63724;47.470;19.166;2023-02-04T02:17:57;7.47;;;1.27;;
75148;SDS011;63724;47.470;19.166;2023-02-04T02:20:59;3.10;;;0.90;;
75148;SDS011;63724;47.470;19.166;2023-02-04T02:24:25;7.18;;;1.08;;
75148;SDS011;63724;47.470;19.166;2023-02-04T02:27:32;5.20;;;0.75;;
75148;SDS011;63724;47.470;19.166;2023-02-04T02:30:34;7.50;;;0.82;;
75148;SDS011;63724;47.470;19.166;2023-02-04T02:33:37;3.43;;;1.00;;
75148;SDS011;63724;47.470;19.166;2023-02-04T02:36:39;2.73;;;1.00;;
75148;SDS011;63724;47.470;19.166;2023-02-04T02:39:43;8.90;;;1.02;;
75148;SDS011;63724;47.470;19.166;2023-02-04T02:42:47;1.90;;;0.73;;
75148;SDS011;63724;47.470;19.166;2023-02-04T02:45:51;5.50;;;1.10;;
75148;SDS011;63724;47.470;19.166;2023-02-04T02:48:55;6.90;;;1.03;;
75148;SDS011;63724;47.470;19.166;2023-02-04T02:51:57;4.73;;;0.80;;
75148;SDS011;63724;47.470;19.166;2023-02-04T02:55:00;3.63;;;0.60;;
75148;SDS011;63724;47.470;19.166;2023-02-04T02:58:02;4.53;;;0.70;;
75148;SDS011;63724;47.470;19.166;2023-02-04T03:01:06;6.10;;;1.10;;
75148;SDS011;63724;47.470;19.166;2023-02-04T03:04:12;2.97;;;0.67;;
75148;SDS011;63724;47.470;19.166;2023-02-04T03:07:15;3.03;;;0.73;;
75148;SDS011;63724;47.470;19.166;2023-02-04T03:10:21;3.53;;;0.93;;
75148;SDS011;63724;47.470;19.166;2023-02-04T03:13:24;3.58;;;0.75;;
75148;SDS011;63724;47.470;19.166;2023-02-04T03:16:29;4.53;;;0.80;;
75148;SDS011;63724;47.470;19.166;2023-02-04T03:19:39;4.53;;;0.73;;
75148;SDS011;63724;47.470;19.166;2023-02-04T03:22:41;1.13;;;0.30;;
75148;SDS011;63724;47.470;19.166;2023-02-04T03:25:44;2.45;;;0.60;;
75148;SDS011;63724;47.470;19.166;2023-02-04T03:28:46;4.25;;;0.55;;
75148;SDS011;63724;47.470;19.166;2023-02-04T03:31:49;3.40;;;0.75;;
75148;SDS011;63724;47.470;19.166;2023-02-04T03:34:51;6.50;;;0.93;;
75148;SDS011;63724;47.470;19.166;2023-02-04T03:37:53;6.00;;;1.20;;
75148;SDS011;63724;47.470;19.166;2023-02-04T03:40:56;7.43;;;0.70;;
75148;SDS011;63724;47.470;19.166;2023-02-04T03:43:58;5.72;;;1.00;;
75148;SDS011;63724;47.470;19.166;2023-02-04T03:47:00;2.95;;;0.50;;
75148;SDS011;63724;47.470;19.166;2023-02-04T03:50:03;3.10;;;0.40;;
75148;SDS011;63724;47.470;19.166;2023-02-04T03:53:06;1.83;;;0.30;;
75148;SDS011;63724;47.470;19.166;2023-02-04T03:56:09;5.20;;;0.88;;
75148;SDS011;63724;47.470;19.166;2023-02-04T03:59:11;4.57;;;0.73;;
75148;SDS011;63724;47.470;19.166;2023-02-04T04:02:13;3.65;;;0.60;;
75148;SDS011;63724;47.470;19.166;2023-02-04T04:05:16;3.80;;;0.50;;
75148;SDS011;63724;47.470;19.166;2023-02-04T04:08:18;3.30;;;0.60;;
75148;SDS011;63724;47.470;19.166;2023-02-04T04:11:20;3.95;;;0.47;;
75148;SDS011;63724;47.470;19.166;2023-02-04T04:14:23;2.30;;;0.55;;
75148;SDS011;63724;47.470;19.166;2023-02-04T04:17:25;6.82;;;0.57;;
75148;SDS011;63724;47.470;19.166;2023-02-04T04:20:27;6.20;;;0.80;;
75148;SDS011;63724;47.470;19.166;2023-02-04T04:23:30;3.93;;;0.70;;
75148;SDS011;63724;47.470;19.166;2023-02-04T04:26:32;3.67;;;0.40;;
75148;SDS011;63724;47.470;19.166;2023-02-04T04:29:35;3.40;;;0.68;;
75148;SDS011;63724;47.470;19.166;2023-02-04T04:32:37;4.13;;;0.93;;
75148;SDS011;63724;47.470;19.166;2023-02-04T04:35:39;4.77;;;0.80;;
75148;SDS011;63724;47.470;19.166;2023-02-04T04:38:42;5.73;;;0.87;;
75148;SDS011;63724;47.470;19.166;2023-02-04T04:41:44;6.85;;;0.50;;
75148;SDS011;63724;47.470;19.166;2023-02-04T04:44:46;2.75;;;0.60;;
75148;SDS011;63724;47.470;19.166;2023-02-04T04:47:49;1.23;;;0.13;;
75148;SDS011;63724;47.470;19.166;2023-02-04T04:50:51;3.93;;;0.87;;
75148;SDS011;63724;47.470;19.166;2023-02-04T04:53:53;3.23;;;0.53;;
75148;SDS011;63724;47.470;19.166;2023-02-04T04:56:56;2.47;;;0.30;;
75148;SDS011;63724;47.470;19.166;2023-02-04T04:59:58;5.00;;;0.50;;
75148;SDS011;63724;47.470;19.166;2023-02-04T05:03:00;3.75;;;0.60;;
75148;SDS011;63724;47.470;19.166;2023-02-04T05:06:03;1.83;;;0.40;;
75148;SDS011;63724;47.470;19.166;2023-02-04T05:09:07;1.70;;;0.40;;
75148;SDS011;63724;47.470;19.166;2023-02-04T05:12:10;2.88;;;0.50;;
75148;SDS011;63724;47.470;19.166;2023-02-04T05:15:13;4.63;;;0.40;;
75148;SDS011;63724;47.470;19.166;2023-02-04T05:18:15;4.22;;;0.40;;
75148;SDS011;63724;47.470;19.166;2023-02-04T05:21:20;2.87;;;0.60;;
75148;SDS011;63724;47.470;19.166;2023-02-04T05:24:22;2.07;;;0.53;;
75148;SDS011;63724;47.470;19.166;2023-02-04T05:27:25;4.70;;;0.40;;
75148;SDS011;63724;47.470;19.166;2023-02-04T05:30:27;6.90;;;0.70;;
75148;SDS011;63724;47.470;19.166;2023-02-04T05:33:29;3.20;;;0.55;;
75148;SDS011;63724;47.470;19.166;2023-02-04T05:36:32;3.97;;;0.30;;
75148;SDS011;63724;47.470;19.166;2023-02-04T05:39:34;1.13;;;0.30;;
75148;SDS011;63724;47.470;19.166;2023-02-04T05:42:36;1.92;;;0.20;;
75148;SDS011;63724;47.470;19.166;2023-02-04T05:45:39;2.88;;;0.80;;
75148;SDS011;63724;47.470;19.166;2023-02-04T05:48:41;2.95;;;0.30;;
75148;SDS011;63724;47.470;19.166;2023-02-04T05:51:44;4.07;;;0.40;;
75148;SDS011;63724;47.470;19.166;2023-02-04T05:54:46;3.10;;;0.30;;
75148;SDS011;63724;47.470;19.166;2023-02-04T05:57:48;2.33;;;0.47;;
75148;SDS011;63724;47.470;19.166;2023-02-04T06:00:51;1.25;;;0.20;;
75148;SDS011;63724;47.470;19.166;2023-02-04T06:03:53;2.85;;;0.40;;
75148;SDS011;63724;47.470;19.166;2023-02-04T06:06:55;3.23;;;0.30;;
75148;SDS011;63724;47.470;19.166;2023-02-04T06:09:57;1.70;;;0.30;;
75148;SDS011;63724;47.470;19.166;2023-02-04T06:13:01;2.00;;;0.20;;
75148;SDS011;63724;47.470;19.166;2023-02-04T06:16:04;1.92;;;0.32;;
75148;SDS011;63724;47.470;19.166;2023-02-04T06:19:07;1.95;;;0.30;;
75148;SDS011;63724;47.470;19.166;2023-02-04T06:22:09;1.17;;;0.20;;
75148;SDS011;63724;47.470;19.166;2023-02-04T06:25:12;1.70;;;0.20;;
75148;SDS011;63724;47.470;19.166;2023-02-04T06:28:14;0.47;;;0.20;;
75148;SDS011;63724;47.470;19.166;2023-02-04T06:31:16;0.20;;;0.17;;
75148;SDS011;63724;47.470;19.166;2023-02-04T06:34:19;0.43;;;0.17;;
75148;SDS011;63724;47.470;19.166;2023-02-04T06:37:21;0.20;;;0.10;;
75148;SDS011;63724;47.470;19.166;2023-02-04T06:40:25;1.23;;;0.10;;
75148;SDS011;63724;47.470;19.166;2023-02-04T06:43:27;1.67;;;0.57;;
75148;SDS011;63724;47.470;19.166;2023-02-04T06:46:29;0.13;;;0.08;;
75148;SDS011;63724;47.470;19.166;2023-02-04T06:49:32;0.80;;;0.20;;
75148;SDS011;63724;47.470;19.166;2023-02-04T06:52:34;1.37;;;0.40;;
75148;SDS011;63724;47.470;19.166;2023-02-04T06:55:38;0.40;;;0.20;;
75148;SDS011;63724;47.470;19.166;2023-02-04T06:58:40;1.83;;;0.30;;
75148;SDS011;63724;47.470;19.166;2023-02-04T07:01:42;0.88;;;0.20;;
75148;SDS011;63724;47.470;19.166;2023-02-04T07:04:45;0.20;;;0.10;;
75148;SDS011;63724;47.470;19.166;2023-02-04T07:07:48;0.50;;;0.20;;
75148;SDS011;63724;47.470;19.166;2023-02-04T07:10:50;0.40;;;0.10;;
75148;SDS011;63724;47.470;19.166;2023-02-04T07:13:53;1.13;;;0.30;;
75148;SDS011;63724;47.470;19.166;2023-02-04T07:16:55;0.65;;;0.30;;
75148;SDS011;63724;47.470;19.166;2023-02-04T07:19:59;0.50;;;0.30;;
75148;SDS011;63724;47.470;19.166;2023-02-04T07:23:01;0.30;;;0.20;;
75148;SDS011;63724;47.470;19.166;2023-02-04T07:26:04;0.90;;;0.30;;
75148;SDS011;63724;47.470;19.166;2023-02-04T07:29:06;0.93;;;0.50;;
75148;SDS011;63724;47.470;19.166;2023-02-04T07:32:15;0.88;;;0.40;;
75148;SDS011;63724;47.470;19.166;2023-02-04T07:35:17;0.50;;;0.40;;
75148;SDS011;63724;47.470;19.166;2023-02-04T07:38:20;1.07;;;0.53;;
75148;SDS011;63724;47.470;19.166;2023-02-04T07:41:22;1.07;;;0.60;;
75148;SDS011;63724;47.470;19.166;2023-02-04T07:44:24;1.52;;;0.68;;
75148;SDS011;63724;47.470;19.166;2023-02-04T07:47:27;1.67;;;0.60;;
75148;SDS011;63724;47.470;19.166;2023-02-04T07:50:29;1.90;;;0.90;;
75148;SDS011;63724;47.470;19.166;2023-02-04T07:53:32;0.73;;;0.60;;
75148;SDS011;63724;47.470;19.166;2023-02-04T07:56:34;1.10;;;0.80;;
75148;SDS011;63724;47.470;19.166;2023-02-04T07:59:37;3.15;;;1.40;;
75148;SDS011;63724;47.470;19.166;2023-02-04T08:02:39;2.10;;;0.98;;
75148;SDS011;63724;47.470;19.166;2023-02-04T08:05:42;3.72;;;1.40;;
75148;SDS011;63724;47.470;19.166;2023-02-04T08:08:45;2.77;;;1.40;;
75148;SDS011;63724;47.470;19.166;2023-02-04T08:11:47;2.87;;;1.70;;
75148;SDS011;63724;47.470;19.166;2023-02-04T08:14:49;2.45;;;1.65;;
75148;SDS011;63724;47.470;19.166;2023-02-04T08:17:51;2.78;;;1.70;;
75148;SDS011;63724;47.470;19.166;2023-02-04T08:20:54;2.83;;;1.80;;
75148;SDS011;63724;47.470;19.166;2023-02-04T08:23:56;3.47;;;1.60;;
75148;SDS011;63724;47.470;19.166;2023-02-04T08:26:59;3.07;;;1.83;;
75148;SDS011;63724;47.470;19.166;2023-02-04T08:30:01;3.97;;;1.98;;
75148;SDS011;63724;47.470;19.166;2023-02-04T08:33:04;3.92;;;2.08;;
75148;SDS011;63724;47.470;19.166;2023-02-04T08:36:07;2.17;;;1.40;;
75148;SDS011;63724;47.470;19.166;2023-02-04T08:39:09;3.57;;;2.10;;
75148;SDS011;63724;47.470;19.166;2023-02-04T08:42:13;3.97;;;1.97;;
75148;SDS011;63724;47.470;19.166;2023-02-04T08:45:16;2.65;;;1.98;;
75148;SDS011;63724;47.470;19.166;2023-02-04T08:48:18;3.67;;;1.85;;
75148;SDS011;63724;47.470;19.166;2023-02-04T08:51:21;2.65;;;1.83;;
75148;SDS011;63724;47.470;19.166;2023-02-04T08:54:23;5.87;;;1.97;;
75148;SDS011;63724;47.470;19.166;2023-02-04T08:57:27;3.03;;;2.00;;
75148;SDS011;63724;47.470;19.166;2023-02-04T09:00:29;3.53;;;1.85;;
75148;SDS011;63724;47.470;19.166;2023-02-04T09:03:32;2.45;;;1.65;;
75148;SDS011;63724;47.470;19.166;2023-02-04T09:06:34;3.80;;;1.70;;
75148;SDS011;63724;47.470;19.166;2023-02-04T09:09:37;3.20;;;1.60;;
75148;SDS011;63724;47.470;19.166;2023-02-04T09:12:39;3.77;;;1.40;;
75148;SDS011;63724;47.470;19.166;2023-02-04T09:15:43;2.45;;;1.30;;
75148;SDS011;63724;47.470;19.166;2023-02-04T09:18:45;3.40;;;1.63;;
75148;SDS011;63724;47.470;19.166;2023-02-04T09:21:48;3.05;;;1.42;;
75148;SDS011;63724;47.470;19.166;2023-02-04T09:24:50;6.20;;;1.90;;
75148;SDS011;63724;47.470;19.166;2023-02-04T09:27:53;2.57;;;1.40;;
75148;SDS011;63724;47.470;19.166;2023-02-04T09:30:55;2.53;;;1.30;;
75148;SDS011;63724;47.470;19.166;2023-02-04T09:33:57;1.88;;;1.10;;
75148;SDS011;63724;47.470;19.166;2023-02-04T09:37:01;2.10;;;1.40;;
75148;SDS011;63724;47.470;19.166;2023-02-04T09:40:03;2.73;;;1.20;;
75148;SDS011;63724;47.470;19.166;2023-02-04T09:43:06;2.50;;;1.10;;
75148;SDS011;63724;47.470;19.166;2023-02-04T09:46:26;2.42;;;1.00;;
75148;SDS011;63724;47.470;19.166;2023-02-04T09:49:30;2.72;;;1.05;;
75148;SDS011;63724;47.470;19.166;2023-02-04T09:52:33;2.00;;;0.90;;
75148;SDS011;63724;47.470;19.166;2023-02-04T09:55:39;2.80;;;0.80;;
75148;SDS011;63724;47.470;19.166;2023-02-04T09:58:42;1.70;;;1.00;;
75148;SDS011;63724;47.470;19.166;2023-02-04T10:01:45;1.73;;;0.93;;
75148;SDS011;63724;47.470;19.166;2023-02-04T10:04:50;1.80;;;0.82;;
75148;SDS011;63724;47.470;19.166;2023-02-04T10:07:54;1.00;;;0.90;;
75148;SDS011;63724;47.470;19.166;2023-02-04T10:10:57;2.00;;;0.80;;
75148;SDS011;63724;47.470;19.166;2023-02-04T10:14:00;1.57;;;0.80;;
75148;SDS011;63724;47.470;19.166;2023-02-04T10:17:02;1.75;;;0.73;;
75148;SDS011;63724;47.470;19.166;2023-02-04T10:20:07;1.20;;;0.70;;
75148;SDS011;63724;47.470;19.166;2023-02-04T10:23:13;1.65;;;0.60;;
75148;SDS011;63724;47.470;19.166;2023-02-04T10:26:16;2.27;;;0.60;;
75148;SDS011;63724;47.470;19.166;2023-02-04T10:29:21;0.73;;;0.70;;
75148;SDS011;63724;47.470;19.166;2023-02-04T10:32:27;1.85;;;0.63;;
75148;SDS011;63724;47.470;19.166;2023-02-04T10:35:31;2.08;;;1.00;;
75148;SDS011;63724;47.470;19.166;2023-02-04T10:39:02;1.05;;;0.70;;
75148;SDS011;63724;47.470;19.166;2023-02-04T10:42:05;1.70;;;0.70;;
75148;SDS011;63724;47.470;19.166;2023-02-04T10:45:20;0.97;;;0.60;;
75148;SDS011;63724;47.470;19.166;2023-02-04T10:48:26;0.65;;;0.50;;
75148;SDS011;63724;47.470;19.166;2023-02-04T10:51:31;1.20;;;0.40;;
75148;SDS011;63724;47.470;19.166;2023-02-04T10:54:34;1.25;;;0.50;;
75148;SDS011;63724;47.470;19.166;2023-02-04T10:57:39;1.90;;;0.57;;
75148;SDS011;63724;47.470;19.166;2023-02-04T11:00:42;1.60;;;0.40;;
75148;SDS011;63724;47.470;19.166;2023-02-04T11:03:44;2.97;;;0.75;;
75148;SDS011;63724;47.470;19.166;2023-02-04T11:06:49;0.70;;;0.50;;
75148;SDS011;63724;47.470;19.166;2023-02-04T11:09:53;1.85;;;0.60;;
75148;SDS011;63724;47.470;19.166;2023-02-04T11:16:09;2.00;;;0.70;;
75148;SDS011;63724;47.470;19.166;2023-02-04T11:19:13;1.10;;;0.70;;
75148;SDS011;63724;47.470;19.166;2023-02-04T11:25:34;1.98;;;0.63;;
75148;SDS011;63724;47.470;19.166;2023-02-04T11:29:25;0.70;;;0.50;;
75148;SDS011;63724;47.470;19.166;2023-02-04T11:32:02;1.83;;;0.50;;
75148;SDS011;63724;47.470;19.166;2023-02-04T11:38:26;1.30;;;0.50;;
75148;SDS011;63724;47.470;19.166;2023-02-04T11:41:30;2.35;;;0.60;;
75148;SDS011;63724;47.470;19.166;2023-02-04T11:44:34;1.40;;;0.60;;
75148;SDS011;63724;47.470;19.166;2023-02-04T11:47:36;1.77;;;0.80;;
75148;SDS011;63724;47.470;19.166;2023-02-04T11:50:39;1.48;;;0.45;;
75148;SDS011;63724;47.470;19.166;2023-02-04T11:53:43;3.47;;;0.40;;
75148;SDS011;63724;47.470;19.166;2023-02-04T11:56:45;1.27;;;0.57;;
75148;SDS011;63724;47.470;19.166;2023-02-04T11:59:47;0.60;;;0.40;;
75148;SDS011;63724;47.470;19.166;2023-02-04T12:03:00;0.70;;;0.47;;
75148;SDS011;63724;47.470;19.166;2023-02-04T12:06:07;1.20;;;0.60;;
75148;SDS011;63724;47.470;19.166;2023-02-04T12:12:28;1.65;;;0.50;;
75148;SDS011;63724;47.470;19.166;2023-02-04T12:15:32;1.40;;;0.40;;
75148;SDS011;63724;47.470;19.166;2023-02-04T12:18:38;0.60;;;0.30;;
75148;SDS011;63724;47.470;19.166;2023-02-04T12:21:40;3.80;;;0.30;;
75148;SDS011;63724;47.470;19.166;2023-02-04T12:24:43;0.73;;;0.47;;
75148;SDS011;63724;47.470;19.166;2023-02-04T12:27:46;0.73;;;0.30;;
75148;SDS011;63724;47.470;19.166;2023-02-04T12:30:48;2.87;;;0.60;;
75148;SDS011;63724;47.470;19.166;2023-02-04T12:33:50;0.70;;;0.30;;
75148;SDS011;63724;47.470;19.166;2023-02-04T12:36:55;0.80;;;0.20;;
75148;SDS011;63724;47.470;19.166;2023-02-04T12:39:57;2.20;;;0.38;;
75148;SDS011;63724;47.470;19.166;2023-02-04T12:42:59;1.17;;;0.50;;
75148;SDS011;63724;47.470;19.166;2023-02-04T12:46:02;1.33;;;0.33;;
75148;SDS011;63724;47.470;19.166;2023-02-04T12:49:05;0.40;;;0.20;;
75148;SDS011;63724;47.470;19.166;2023-02-04T12:52:10;0.50;;;0.40;;
75148;SDS011;63724;47.470;19.166;2023-02-04T12:55:12;1.83;;;0.40;;
75148;SDS011;63724;47.470;19.166;2023-02-04T12:58:14;1.10;;;0.40;;
75148;SDS011;63724;47.470;19.166;2023-02-04T13:01:17;0.83;;;0.50;;
75148;SDS011;63724;47.470;19.166;2023-02-04T13:04:19;0.87;;;0.60;;
75148;SDS011;63724;47.470;19.166;2023-02-04T13:07:22;1.45;;;0.52;;
75148;SDS011;63724;47.470;19.166;2023-02-04T13:10:24;1.00;;;0.50;;
75148;SDS011;63724;47.470;19.166;2023-02-04T13:13:27;2.17;;;0.50;;
75148;SDS011;63724;47.470;19.166;2023-02-04T13:16:29;1.50;;;0.70;;
75148;SDS011;63724;47.470;19.166;2023-02-04T13:19:32;2.33;;;0.90;;
75148;SDS011;63724;47.470;19.166;2023-02-04T13:22:34;1.17;;;0.50;;
75148;SDS011;63724;47.470;19.166;2023-02-04T13:25:36;3.25;;;0.70;;
75148;SDS011;63724;47.470;19.166;2023-02-04T13:28:39;1.30;;;0.85;;
75148;SDS011;63724;47.470;19.166;2023-02-04T13:31:41;1.13;;;0.60;;
75148;SDS011;63724;47.470;19.166;2023-02-04T13:34:43;0.70;;;0.40;;
75148;SDS011;63724;47.470;19.166;2023-02-04T13:37:46;4.90;;;0.60;;
75148;SDS011;63724;47.470;19.166;2023-02-04T13:40:48;1.20;;;0.60;;
75148;SDS011;63724;47.470;19.166;2023-02-04T13:43:50;0.93;;;0.57;;
75148;SDS011;63724;47.470;19.166;2023-02-04T13:46:53;2.63;;;0.80;;
75148;SDS011;63724;47.470;19.166;2023-02-04T13:49:55;1.23;;;0.70;;
75148;SDS011;63724;47.470;19.166;2023-02-04T13:52:57;1.75;;;0.82;;
75148;SDS011;63724;47.470;19.166;2023-02-04T13:56:00;2.20;;;1.05;;
75148;SDS011;63724;47.470;19.166;2023-02-04T13:59:02;4.70;;;0.77;;
75148;SDS011;63724;47.470;19.166;2023-02-04T14:02:04;1.33;;;0.73;;
75148;SDS011;63724;47.470;19.166;2023-02-04T14:05:07;3.20;;;0.97;;
75148;SDS011;63724;47.470;19.166;2023-02-04T14:08:09;0.93;;;0.60;;
75148;SDS011;63724;47.470;19.166;2023-02-04T14:11:12;1.60;;;0.50;;
75148;SDS011;63724;47.470;19.166;2023-02-04T14:14:14;1.70;;;0.68;;
75148;SDS011;63724;47.470;19.166;2023-02-04T14:17:16;1.73;;;0.63;;
75148;SDS011;63724;47.470;19.166;2023-02-04T14:20:19;1.00;;;0.77;;
75148;SDS011;63724;47.470;19.166;2023-02-04T14:23:21;1.52;;;0.75;;
75148;SDS011;63724;47.470;19.166;2023-02-04T14:26:24;1.75;;;0.90;;
75148;SDS011;63724;47.470;19.166;2023-02-04T14:29:27;1.73;;;1.10;;
75148;SDS011;63724;47.470;19.166;2023-02-04T14:32:29;2.97;;;1.20;;
75148;SDS011;63724;47.470;19.166;2023-02-04T14:35:31;2.37;;;1.00;;
75148;SDS011;63724;47.470;19.166;2023-02-04T14:38:34;1.35;;;0.70;;
75148;SDS011;63724;47.470;19.166;2023-02-04T14:41:36;3.05;;;1.10;;
75148;SDS011;63724;47.470;19.166;2023-02-04T14:44:38;2.85;;;1.40;;
75148;SDS011;63724;47.470;19.166;2023-02-04T14:47:41;3.13;;;1.40;;
75148;SDS011;63724;47.470;19.166;2023-02-04T14:50:43;2.23;;;1.20;;
75148;SDS011;63724;47.470;19.166;2023-02-04T14:53:45;2.30;;;1.23;;
75148;SDS011;63724;47.470;19.166;2023-02-04T14:56:49;3.50;;;1.55;;
75148;SDS011;63724;47.470;19.166;2023-02-04T14:59:52;2.35;;;1.30;;
75148;SDS011;63724;47.470;19.166;2023-02-04T15:02:54;3.07;;;1.70;;
75148;SDS011;63724;47.470;19.166;2023-02-04T15:05:56;3.67;;;1.57;;
75148;SDS011;63724;47.470;19.166;2023-02-04T15:08:59;3.45;;;1.50;;
75148;SDS011;63724;47.470;19.166;2023-02-04T15:12:01;4.60;;;1.50;;
75148;SDS011;63724;47.470;19.166;2023-02-04T15:15:04;3.47;;;1.92;;
75148;SDS011;63724;47.470;19.166;2023-02-04T15:18:07;2.87;;;1.60;;
75148;SDS011;63724;47.470;19.166;2023-02-04T15:21:09;4.47;;;1.30;;
75148;SDS011;63724;47.470;19.166;2023-02-04T15:24:12;3.08;;;1.70;;
75148;SDS011;63724;47.470;19.166;2023-02-04T15:27:14;4.60;;;1.80;;
75148;SDS011;63724;47.470;19.166;2023-02-04T15:30:16;4.03;;;2.03;;
75148;SDS011;63724;47.470;19.166;2023-02-04T15:33:19;1.83;;;1.67;;
75148;SDS011;63724;47.470;19.166;2023-02-04T15:36:21;2.83;;;1.40;;
75148;SDS011;63724;47.470;19.166;2023-02-04T15:39:23;3.47;;;1.50;;
75148;SDS011;63724;47.470;19.166;2023-02-04T15:42:26;3.17;;;1.42;;
75148;SDS011;63724;47.470;19.166;2023-02-04T15:45:28;3.38;;;1.63;;
75148;SDS011;63724;47.470;19.166;2023-02-04T15:48:30;2.43;;;1.60;;
75148;SDS011;63724;47.470;19.166;2023-02-04T15:51:33;3.17;;;1.90;;
75148;SDS011;63724;47.470;19.166;2023-02-04T15:54:35;6.00;;;2.25;;
75148;SDS011;63724;47.470;19.166;2023-02-04T15:57:38;8.82;;;2.40;;
75148;SDS011;63724;47.470;19.166;2023-02-04T16:00:41;2.70;;;1.40;;
75148;SDS011;63724;47.470;19.166;2023-02-04T16:03:43;3.10;;;1.40;;
75148;SDS011;63724;47.470;19.166;2023-02-04T16:06:47;2.93;;;1.00;;
75148;SDS011;63724;47.470;19.166;2023-02-04T16:09:59;2.45;;;1.15;;
75148;SDS011;63724;47.470;19.166;2023-02-04T16:13:01;2.13;;;1.10;;
75148;SDS011;63724;47.470;19.166;2023-02-04T16:16:04;2.40;;;1.05;;
75148;SDS011;63724;47.470;19.166;2023-02-04T16:19:07;2.83;;;1.30;;
75148;SDS011;63724;47.470;19.166;2023-02-04T16:22:10;2.60;;;0.80;;
75148;SDS011;63724;47.470;19.166;2023-02-04T16:25:12;3.13;;;0.85;;
75148;SDS011;63724;47.470;19.166;2023-02-04T16:28:14;2.63;;;0.90;;
75148;SDS011;63724;47.470;19.166;2023-02-04T16:31:17;2.15;;;1.05;;
75148;SDS011;63724;47.470;19.166;2023-02-04T16:34:19;1.60;;;1.20;;
75148;SDS011;63724;47.470;19.166;2023-02-04T16:37:22;2.50;;;1.60;;
75148;SDS011;63724;47.470;19.166;2023-02-04T16:40:24;1.83;;;0.90;;
75148;SDS011;63724;47.470;19.166;2023-02-04T16:43:26;1.77;;;1.00;;
75148;SDS011;63724;47.470;19.166;2023-02-04T16:46:29;2.38;;;0.85;;
75148;SDS011;63724;47.470;19.166;2023-02-04T16:49:34;1.67;;;0.63;;
75148;SDS011;63724;47.470;19.166;2023-02-04T16:52:37;2.07;;;1.10;;
75148;SDS011;63724;47.470;19.166;2023-02-04T16:55:40;1.83;;;0.80;;
75148;SDS011;63724;47.470;19.166;2023-02-04T16:58:43;2.53;;;0.88;;
75148;SDS011;63724;47.470;19.166;2023-02-04T17:01:46;2.13;;;1.00;;
75148;SDS011;63724;47.470;19.166;2023-02-04T17:04:49;3.93;;;0.97;;
75148;SDS011;63724;47.470;19.166;2023-02-04T17:07:54;0.97;;;0.67;;
75148;SDS011;63724;47.470;19.166;2023-02-04T17:10:56;4.05;;;1.08;;
75148;SDS011;63724;47.470;19.166;2023-02-04T17:14:17;2.08;;;0.88;;
75148;SDS011;63724;47.470;19.166;2023-02-04T17:17:20;4.07;;;1.13;;
75148;SDS011;63724;47.470;19.166;2023-02-04T17:20:23;2.73;;;0.90;;
75148;SDS011;63724;47.470;19.166;2023-02-04T17:23:25;1.50;;;0.80;;
75148;SDS011;63724;47.470;19.166;2023-02-04T17:26:29;2.08;;;0.85;;
75148;SDS011;63724;47.470;19.166;2023-02-04T17:29:37;2.88;;;0.88;;
75148;SDS011;63724;47.470;19.166;2023-02-04T17:32:40;2.72;;;0.70;;
75148;SDS011;63724;47.470;19.166;2023-02-04T17:35:44;1.70;;;0.90;;
75148;SDS011;63724;47.470;19.166;2023-02-04T17:38:46;1.80;;;0.90;;
75148;SDS011;63724;47.470;19.166;2023-02-04T17:41:48;2.38;;;0.80;;
75148;SDS011;63724;47.470;19.166;2023-02-04T17:44:51;1.55;;;0.73;;
75148;SDS011;63724;47.470;19.166;2023-02-04T17:47:53;3.85;;;0.95;;
75148;SDS011;63724;47.470;19.166;2023-02-04T17:50:56;2.23;;;1.13;;
75148;SDS011;63724;47.470;19.166;2023-02-04T17:53:58;3.03;;;1.10;;
75148;SDS011;63724;47.470;19.166;2023-02-04T17:57:01;7.13;;;1.15;;
75148;SDS011;63724;47.470;19.166;2023-02-04T18:00:16;2.67;;;1.20;;
75148;SDS011;63724;47.470;19.166;2023-02-04T18:03:22;1.65;;;0.98;;
75148;SDS011;63724;47.470;19.166;2023-02-04T18:06:26;2.20;;;1.17;;
75148;SDS011;63724;47.470;19.166;2023-02-04T18:09:30;1.70;;;1.07;;
75148;SDS011;63724;47.470;19.166;2023-02-04T18:12:32;2.67;;;0.90;;
75148;SDS011;63724;47.470;19.166;2023-02-04T18:15:36;3.10;;;0.93;;
75148;SDS011;63724;47.470;19.166;2023-02-04T18:18:39;1.90;;;1.00;;
75148;SDS011;63724;47.470;19.166;2023-02-04T18:21:42;2.63;;;1.03;;